sensor_id;sensor_type;location;lat;lon;timestamp;pressure;altitude;pressure_sealevel;temperature;humidity
65872;BME280;52653;50.080;21.992;2023-02-28T00:02:10;100411.31;;;-2.42;75.27
65872;BME280;52653;50.080;21.992;2023-02-28T00:05:03;100407.09;;;-2.41;75.62
65872;BME280;52653;50.080;21.992;2023-02-28T00:07:43;100409.98;;;-2.41;75.69
65872;BME280;52653;50.080;21.992;2023-02-28T00:10:36;100411.70;;;-2.44;75.54
65872;BME280;52653;50.080;21.992;2023-02-28T00:13:29;100414.05;;;-2.50;75.73
65872;BME280;52653;50.080;21.992;2023-02-28T00:16:14;100414.30;;;-2.57;75.93
65872;BME280;52653;50.080;21.992;2023-02-28T00:19:07;100413.58;;;-2.66;75.95
65872;BME280;52653;50.080;21.992;2023-02-28T00:21:52;100416.17;;;-2.73;76.08
65872;BME280;52653;50.080;21.992;2023-02-28T00:24:45;100418.63;;;-2.83;76.07
65872;BME280;52653;50.080;21.992;2023-02-28T00:27:39;100421.45;;;-2.90;76.16
65872;BME280;52653;50.080;21.992;2023-02-28T00:30:33;100425.86;;;-2.93;76.44
65872;BME280;52653;50.080;21.992;2023-02-28T00:33:26;100424.32;;;-2.93;76.47
65872;BME280;52653;50.080;21.992;2023-02-28T00:36:20;100422.60;;;-2.91;76.65
65872;BME280;52653;50.080;21.992;2023-02-28T00:39:13;100417.42;;;-2.88;76.83
65872;BME280;52653;50.080;21.992;2023-02-28T00:42:07;100417.30;;;-2.85;77.00
65872;BME280;52653;50.080;21.992;2023-02-28T00:45:00;100413.73;;;-2.82;77.23
65872;BME280;52653;50.080;21.992;2023-02-28T00:47:56;100416.22;;;-2.78;77.29
65872;BME280;52653;50.080;21.992;2023-02-28T00:50:51;100414.02;;;-2.80;77.28
65872;BME280;52653;50.080;21.992;2023-02-28T00:53:45;100414.21;;;-2.85;77.14
65872;BME280;52653;50.080;21.992;2023-02-28T00:56:38;100414.21;;;-2.93;76.98
65872;BME280;52653;50.080;21.992;2023-02-28T00:59:25;100414.15;;;-3.02;77.05
65872;BME280;52653;50.080;21.992;2023-02-28T01:02:18;100411.95;;;-3.12;76.99
65872;BME280;52653;50.080;21.992;2023-02-28T01:05:12;100412.52;;;-3.24;77.23
65872;BME280;52653;50.080;21.992;2023-02-28T01:08:07;100415.14;;;-3.34;77.35
65872;BME280;52653;50.080;21.992;2023-02-28T01:11:06;100417.43;;;-3.40;77.58
65872;BME280;52653;50.080;21.992;2023-02-28T01:13:43;100415.95;;;-3.44;77.94
65872;BME280;52653;50.080;21.992;2023-02-28T01:16:30;100419.48;;;-3.45;78.07
65872;BME280;52653;50.080;21.992;2023-02-28T01:19:23;100417.60;;;-3.43;78.00
65872;BME280;52653;50.080;21.992;2023-02-28T01:22:16;100417.61;;;-3.38;78.46
65872;BME280;52653;50.080;21.992;2023-02-28T01:25:00;100421.09;;;-3.34;78.32
65872;BME280;52653;50.080;21.992;2023-02-28T01:27:53;100425.34;;;-3.32;78.42
65872;BME280;52653;50.080;21.992;2023-02-28T01:30:49;100431.23;;;-3.34;78.33
65872;BME280;52653;50.080;21.992;2023-02-28T01:33:41;100431.60;;;-3.39;78.52
65872;BME280;52653;50.080;21.992;2023-02-28T01:36:33;100429.61;;;-3.45;78.71
65872;BME280;52653;50.080;21.992;2023-02-28T01:39:26;100432.91;;;-3.52;78.85
65872;BME280;52653;50.080;21.992;2023-02-28T01:42:19;100438.20;;;-3.61;78.64
65872;BME280;52653;50.080;21.992;2023-02-28T01:45:24;100437.64;;;-3.68;78.50
65872;BME280;52653;50.080;21.992;2023-02-28T01:48:19;100439.55;;;-3.73;78.57
65872;BME280;52653;50.080;21.992;2023-02-28T01:51:07;100437.20;;;-3.75;78.39
65872;BME280;52653;50.080;21.992;2023-02-28T01:54:05;100431.84;;;-3.73;78.62
65872;BME280;52653;50.080;21.992;2023-02-28T01:57:07;100428.52;;;-3.69;78.78
65872;BME280;52653;50.080;21.992;2023-02-28T02:00:07;100431.17;;;-3.63;78.91
65872;BME280;52653;50.080;21.992;2023-02-28T02:03:11;100432.54;;;-3.63;78.75
65872;BME280;52653;50.080;21.992;2023-02-28T02:06:08;100441.54;;;-3.67;78.57
65872;BME280;52653;50.080;21.992;2023-02-28T02:09:01;100440.77;;;-3.72;78.66
65872;BME280;52653;50.080;21.992;2023-02-28T02:11:47;100447.48;;;-3.82;78.37
65872;BME280;52653;50.080;21.992;2023-02-28T02:14:53;100447.35;;;-3.94;78.42
65872;BME280;52653;50.080;21.992;2023-02-28T02:17:54;100445.16;;;-4.06;78.55
65872;BME280;52653;50.080;21.992;2023-02-28T02:21:15;100445.27;;;-4.19;78.72
65872;BME280;52653;50.080;21.992;2023-02-28T02:24:46;100442.44;;;-4.30;78.98
65872;BME280;52653;50.080;21.992;2023-02-28T02:31:31;100443.74;;;-4.36;80.17
65872;BME280;52653;50.080;21.992;2023-02-28T02:34:43;100442.73;;;-4.30;80.56
65872;BME280;52653;50.080;21.992;2023-02-28T02:37:42;100442.55;;;-4.24;80.46
65872;BME280;52653;50.080;21.992;2023-02-28T02:40:35;100439.91;;;-4.15;80.31
65872;BME280;52653;50.080;21.992;2023-02-28T02:43:32;100442.55;;;-4.08;80.18
65872;BME280;52653;50.080;21.992;2023-02-28T02:46:31;100440.67;;;-4.08;80.01
65872;BME280;52653;50.080;21.992;2023-02-28T02:49:30;100431.80;;;-4.13;79.84
65872;BME280;52653;50.080;21.992;2023-02-28T02:52:28;100431.64;;;-4.18;79.91
65872;BME280;52653;50.080;21.992;2023-02-28T02:55:23;100427.52;;;-4.25;80.20
65872;BME280;52653;50.080;21.992;2023-02-28T02:58:01;100425.02;;;-4.34;80.26
65872;BME280;52653;50.080;21.992;2023-02-28T03:00:56;100419.98;;;-4.45;80.44
65872;BME280;52653;50.080;21.992;2023-02-28T03:03:50;100419.07;;;-4.55;80.64
65872;BME280;52653;50.080;21.992;2023-02-28T03:06:42;100419.05;;;-4.60;80.82
65872;BME280;52653;50.080;21.992;2023-02-28T03:09:28;100420.20;;;-4.60;81.26
65872;BME280;52653;50.080;21.992;2023-02-28T03:12:22;100421.02;;;-4.59;81.47
65872;BME280;52653;50.080;21.992;2023-02-28T03:15:18;100418.54;;;-4.55;81.42
65872;BME280;52653;50.080;21.992;2023-02-28T03:18:29;100417.71;;;-4.50;81.46
65872;BME280;52653;50.080;21.992;2023-02-28T03:21:26;100420.30;;;-4.45;81.22
65872;BME280;52653;50.080;21.992;2023-02-28T03:24:21;100417.53;;;-4.43;80.77
65872;BME280;52653;50.080;21.992;2023-02-28T03:27:23;100419.82;;;-4.40;80.59
65872;BME280;52653;50.080;21.992;2023-02-28T03:30:17;100422.46;;;-4.38;80.67
65872;BME280;52653;50.080;21.992;2023-02-28T03:33:09;100432.77;;;-4.41;80.40
65872;BME280;52653;50.080;21.992;2023-02-28T03:36:09;100431.13;;;-4.47;80.30
65872;BME280;52653;50.080;21.992;2023-02-28T03:39:06;100435.88;;;-4.55;80.02
65872;BME280;52653;50.080;21.992;2023-02-28T03:41:53;100441.11;;;-4.65;79.80
65872;BME280;52653;50.080;21.992;2023-02-28T03:44:49;100442.88;;;-4.79;79.71
65872;BME280;52653;50.080;21.992;2023-02-28T03:47:40;100446.27;;;-4.91;79.80
65872;BME280;52653;50.080;21.992;2023-02-28T03:50:20;100450.91;;;-5.02;79.85
65872;BME280;52653;50.080;21.992;2023-02-28T03:53:18;100455.98;;;-5.10;80.22
65872;BME280;52653;50.080;21.992;2023-02-28T03:56:25;100456.89;;;-5.13;80.16
65872;BME280;52653;50.080;21.992;2023-02-28T03:59:22;100458.33;;;-5.15;80.08
65872;BME280;52653;50.080;21.992;2023-02-28T04:02:17;100457.56;;;-5.14;80.58
65872;BME280;52653;50.080;21.992;2023-02-28T04:05:10;100454.17;;;-5.11;80.50
65872;BME280;52653;50.080;21.992;2023-02-28T04:08:07;100452.61;;;-5.07;80.30
65872;BME280;52653;50.080;21.992;2023-02-28T04:11:03;100445.67;;;-5.01;80.70
65872;BME280;52653;50.080;21.992;2023-02-28T04:13:59;100442.85;;;-4.97;80.83
65872;BME280;52653;50.080;21.992;2023-02-28T04:16:52;100446.80;;;-4.97;80.48
65872;BME280;52653;50.080;21.992;2023-02-28T04:19:44;100446.07;;;-5.03;80.46
65872;BME280;52653;50.080;21.992;2023-02-28T04:22:38;100445.37;;;-5.10;79.95
65872;BME280;52653;50.080;21.992;2023-02-28T04:25:30;100442.66;;;-5.19;80.03
65872;BME280;52653;50.080;21.992;2023-02-28T04:28:25;100446.21;;;-5.28;80.28
65872;BME280;52653;50.080;21.992;2023-02-28T04:31:17;100448.61;;;-5.38;80.23
65872;BME280;52653;50.080;21.992;2023-02-28T04:34:10;100449.59;;;-5.47;80.32
65872;BME280;52653;50.080;21.992;2023-02-28T04:37:03;100450.91;;;-5.52;80.14
65872;BME280;52653;50.080;21.992;2023-02-28T04:40:05;100450.25;;;-5.54;80.45
65872;BME280;52653;50.080;21.992;2023-02-28T04:42:58;100458.32;;;-5.54;80.60
65872;BME280;52653;50.080;21.992;2023-02-28T04:45:51;100452.86;;;-5.51;80.49
65872;BME280;52653;50.080;21.992;2023-02-28T04:48:45;100458.23;;;-5.48;80.75
65872;BME280;52653;50.080;21.992;2023-02-28T04:51:31;100459.44;;;-5.44;80.83
65872;BME280;52653;50.080;21.992;2023-02-28T04:54:24;100461.20;;;-5.38;80.70
65872;BME280;52653;50.080;21.992;2023-02-28T04:57:17;100460.69;;;-5.36;80.76
65872;BME280;52653;50.080;21.992;2023-02-28T05:00:11;100460.62;;;-5.37;80.56
65872;BME280;52653;50.080;21.992;2023-02-28T05:03:07;100459.55;;;-5.42;80.37
65872;BME280;52653;50.080;21.992;2023-02-28T05:05:53;100457.16;;;-5.49;80.54
65872;BME280;52653;50.080;21.992;2023-02-28T05:08:47;100460.87;;;-5.56;80.50
65872;BME280;52653;50.080;21.992;2023-02-28T05:11:40;100466.70;;;-5.65;80.38
65872;BME280;52653;50.080;21.992;2023-02-28T05:14:33;100470.14;;;-5.73;80.44
65872;BME280;52653;50.080;21.992;2023-02-28T05:17:26;100475.77;;;-5.80;80.58
65872;BME280;52653;50.080;21.992;2023-02-28T05:20:19;100479.87;;;-5.84;80.73
65872;BME280;52653;50.080;21.992;2023-02-28T05:23:01;100482.58;;;-5.85;80.73
65872;BME280;52653;50.080;21.992;2023-02-28T05:25:54;100487.77;;;-5.82;80.91
65872;BME280;52653;50.080;21.992;2023-02-28T05:28:47;100490.10;;;-5.76;81.06
65872;BME280;52653;50.080;21.992;2023-02-28T05:31:40;100490.89;;;-5.68;81.15
65872;BME280;52653;50.080;21.992;2023-02-28T05:34:33;100493.09;;;-5.57;81.36
65872;BME280;52653;50.080;21.992;2023-02-28T05:37:26;100491.54;;;-5.44;81.81
65872;BME280;52653;50.080;21.992;2023-02-28T05:40:19;100493.39;;;-5.31;82.04
65872;BME280;52653;50.080;21.992;2023-02-28T05:43:13;100488.80;;;-5.26;81.50
65872;BME280;52653;50.080;21.992;2023-02-28T05:46:07;100489.42;;;-5.20;81.37
65872;BME280;52653;50.080;21.992;2023-02-28T05:49:01;100495.46;;;-5.17;81.63
65872;BME280;52653;50.080;21.992;2023-02-28T05:51:53;100501.54;;;-5.16;81.21
65872;BME280;52653;50.080;21.992;2023-02-28T05:54:47;100505.13;;;-5.16;81.09
65872;BME280;52653;50.080;21.992;2023-02-28T05:57:40;100511.55;;;-5.17;81.09
65872;BME280;52653;50.080;21.992;2023-02-28T06:00:33;100519.58;;;-5.17;81.10
65872;BME280;52653;50.080;21.992;2023-02-28T06:03:26;100516.19;;;-5.14;80.95
65872;BME280;52653;50.080;21.992;2023-02-28T06:06:20;100519.38;;;-5.08;81.35
65872;BME280;52653;50.080;21.992;2023-02-28T06:09:13;100520.89;;;-4.99;81.81
65872;BME280;52653;50.080;21.992;2023-02-28T06:12:07;100524.38;;;-4.87;81.91
65872;BME280;52653;50.080;21.992;2023-02-28T06:15:01;100533.52;;;-4.72;82.10
65872;BME280;52653;50.080;21.992;2023-02-28T06:17:54;100535.25;;;-4.56;82.45
65872;BME280;52653;50.080;21.992;2023-02-28T06:20:53;100536.88;;;-4.38;82.27
65872;BME280;52653;50.080;21.992;2023-02-28T06:23:46;100541.63;;;-4.20;82.23
65872;BME280;52653;50.080;21.992;2023-02-28T06:26:39;100545.92;;;-4.05;81.73
65872;BME280;52653;50.080;21.992;2023-02-28T06:29:32;100552.45;;;-3.96;81.72
65872;BME280;52653;50.080;21.992;2023-02-28T06:32:25;100554.02;;;-3.88;81.53
65872;BME280;52653;50.080;21.992;2023-02-28T06:35:18;100552.20;;;-3.82;81.23
65872;BME280;52653;50.080;21.992;2023-02-28T06:38:12;100552.52;;;-3.75;80.98
65872;BME280;52653;50.080;21.992;2023-02-28T06:41:05;100550.69;;;-3.72;80.83
65872;BME280;52653;50.080;21.992;2023-02-28T06:44:00;100550.30;;;-3.70;80.93
65872;BME280;52653;50.080;21.992;2023-02-28T06:46:53;100548.13;;;-3.65;80.94
65872;BME280;52653;50.080;21.992;2023-02-28T06:49:37;100547.80;;;-3.55;81.22
65872;BME280;52653;50.080;21.992;2023-02-28T06:52:32;100548.08;;;-3.41;81.21
65872;BME280;52653;50.080;21.992;2023-02-28T06:55:29;100548.55;;;-3.24;81.34
65872;BME280;52653;50.080;21.992;2023-02-28T06:58:22;100549.23;;;-3.01;81.26
65872;BME280;52653;50.080;21.992;2023-02-28T07:01:16;100547.37;;;-2.78;81.10
65872;BME280;52653;50.080;21.992;2023-02-28T07:04:10;100550.84;;;-2.57;80.99
65872;BME280;52653;50.080;21.992;2023-02-28T07:07:05;100547.13;;;-2.37;80.61
65872;BME280;52653;50.080;21.992;2023-02-28T07:09:58;100545.70;;;-2.20;80.44
65872;BME280;52653;50.080;21.992;2023-02-28T07:12:52;100550.24;;;-2.00;80.74
65872;BME280;52653;50.080;21.992;2023-02-28T07:15:52;100549.30;;;-1.85;80.49
65872;BME280;52653;50.080;21.992;2023-02-28T07:18:48;100553.86;;;-1.69;80.51
65872;BME280;52653;50.080;21.992;2023-02-28T07:21:41;100550.59;;;-1.61;80.39
65872;BME280;52653;50.080;21.992;2023-02-28T07:24:35;100552.58;;;-1.54;80.19
65872;BME280;52653;50.080;21.992;2023-02-28T07:27:21;100552.63;;;-1.42;79.77
65872;BME280;52653;50.080;21.992;2023-02-28T07:30:17;100550.54;;;-1.34;79.43
65872;BME280;52653;50.080;21.992;2023-02-28T07:33:10;100547.58;;;-1.27;79.36
65872;BME280;52653;50.080;21.992;2023-02-28T07:36:07;100551.93;;;-1.17;79.04
65872;BME280;52653;50.080;21.992;2023-02-28T07:39:00;100550.56;;;-1.03;79.12
65872;BME280;52653;50.080;21.992;2023-02-28T07:41:53;100547.16;;;-0.88;78.54
65872;BME280;52653;50.080;21.992;2023-02-28T07:44:46;100544.06;;;-0.78;78.03
65872;BME280;52653;50.080;21.992;2023-02-28T07:47:41;100540.98;;;-0.67;78.17
65872;BME280;52653;50.080;21.992;2023-02-28T07:50:32;100545.27;;;-0.58;77.60
65872;BME280;52653;50.080;21.992;2023-02-28T07:53:27;100546.73;;;-0.53;76.97
65872;BME280;52653;50.080;21.992;2023-02-28T07:56:20;100541.66;;;-0.49;76.60
65872;BME280;52653;50.080;21.992;2023-02-28T07:59:15;100539.28;;;-0.46;75.81
65872;BME280;52653;50.080;21.992;2023-02-28T08:02:11;100539.37;;;-0.41;75.90
65872;BME280;52653;50.080;21.992;2023-02-28T08:05:08;100533.66;;;-0.35;75.42
65872;BME280;52653;50.080;21.992;2023-02-28T08:08:04;100535.05;;;-0.29;74.95
65872;BME280;52653;50.080;21.992;2023-02-28T08:10:59;100535.96;;;-0.19;75.03
65872;BME280;52653;50.080;21.992;2023-02-28T08:13:51;100538.11;;;-0.05;75.03
65872;BME280;52653;50.080;21.992;2023-02-28T08:16:44;100537.45;;;0.08;73.80
65872;BME280;52653;50.080;21.992;2023-02-28T08:19:38;100544.08;;;0.18;73.14
65872;BME280;52653;50.080;21.992;2023-02-28T08:22:24;100548.04;;;0.31;73.55
65872;BME280;52653;50.080;21.992;2023-02-28T08:25:17;100546.02;;;0.44;72.99
65872;BME280;52653;50.080;21.992;2023-02-28T08:28:09;100544.33;;;0.58;72.90
65872;BME280;52653;50.080;21.992;2023-02-28T08:31:02;100546.15;;;0.66;71.68
65872;BME280;52653;50.080;21.992;2023-02-28T08:33:59;100544.91;;;0.72;70.84
65872;BME280;52653;50.080;21.992;2023-02-28T08:36:53;100545.14;;;0.73;70.28
65872;BME280;52653;50.080;21.992;2023-02-28T08:39:48;100543.52;;;0.71;69.26
65872;BME280;52653;50.080;21.992;2023-02-28T08:42:46;100547.54;;;0.73;68.79
65872;BME280;52653;50.080;21.992;2023-02-28T08:45:40;100543.26;;;0.73;68.10
65872;BME280;52653;50.080;21.992;2023-02-28T08:48:27;100542.24;;;0.77;68.73
65872;BME280;52653;50.080;21.992;2023-02-28T08:51:22;100542.80;;;0.81;68.24
65872;BME280;52653;50.080;21.992;2023-02-28T08:54:18;100541.26;;;0.84;68.06
65872;BME280;52653;50.080;21.992;2023-02-28T08:57:12;100546.42;;;0.91;68.18
65872;BME280;52653;50.080;21.992;2023-02-28T09:00:04;100548.77;;;0.96;67.44
65872;BME280;52653;50.080;21.992;2023-02-28T09:03:01;100541.56;;;1.00;66.86
65872;BME280;52653;50.080;21.992;2023-02-28T09:05:56;100545.48;;;1.05;66.23
65872;BME280;52653;50.080;21.992;2023-02-28T09:08:49;100542.91;;;1.09;65.90
65872;BME280;52653;50.080;21.992;2023-02-28T09:11:43;100539.69;;;1.21;66.14
65872;BME280;52653;50.080;21.992;2023-02-28T09:14:37;100537.94;;;1.30;64.78
65872;BME280;52653;50.080;21.992;2023-02-28T09:17:30;100535.52;;;1.44;64.67
65872;BME280;52653;50.080;21.992;2023-02-28T09:20:38;100534.86;;;1.56;63.23
65872;BME280;52653;50.080;21.992;2023-02-28T09:23:32;100535.52;;;1.61;62.97
65872;BME280;52653;50.080;21.992;2023-02-28T09:26:11;100532.45;;;1.66;61.98
65872;BME280;52653;50.080;21.992;2023-02-28T09:28:56;100535.64;;;1.64;61.13
65872;BME280;52653;50.080;21.992;2023-02-28T09:31:50;100533.40;;;1.64;62.43
65872;BME280;52653;50.080;21.992;2023-02-28T09:34:34;100531.81;;;1.64;62.10
65872;BME280;52653;50.080;21.992;2023-02-28T09:37:28;100531.83;;;1.67;62.46
65872;BME280;52653;50.080;21.992;2023-02-28T09:40:13;100529.50;;;1.73;62.25
65872;BME280;52653;50.080;21.992;2023-02-28T09:43:14;100531.76;;;1.77;62.22
65872;BME280;52653;50.080;21.992;2023-02-28T09:46:16;100531.45;;;1.85;62.44
65872;BME280;52653;50.080;21.992;2023-02-28T09:49:02;100529.90;;;1.92;61.75
65872;BME280;52653;50.080;21.992;2023-02-28T09:52:00;100534.60;;;2.00;62.50
65872;BME280;52653;50.080;21.992;2023-02-28T09:54:54;100538.41;;;2.07;61.87
65872;BME280;52653;50.080;21.992;2023-02-28T09:57:47;100538.46;;;2.12;61.14
65872;BME280;52653;50.080;21.992;2023-02-28T10:00:43;100537.31;;;2.13;61.13
65872;BME280;52653;50.080;21.992;2023-02-28T10:03:41;100534.54;;;2.16;60.88
65872;BME280;52653;50.080;21.992;2023-02-28T10:06:41;100535.89;;;2.12;60.82
65872;BME280;52653;50.080;21.992;2023-02-28T10:09:37;100536.95;;;2.09;60.99
65872;BME280;52653;50.080;21.992;2023-02-28T10:12:31;100535.14;;;2.07;60.86
65872;BME280;52653;50.080;21.992;2023-02-28T10:15:25;100530.67;;;2.12;61.07
65872;BME280;52653;50.080;21.992;2023-02-28T10:18:24;100529.06;;;2.07;59.97
65872;BME280;52653;50.080;21.992;2023-02-28T10:21:23;100521.69;;;1.97;59.78
65872;BME280;52653;50.080;21.992;2023-02-28T10:24:23;100518.13;;;1.99;61.30
65872;BME280;52653;50.080;21.992;2023-02-28T10:27:22;100516.63;;;2.07;60.45
65872;BME280;52653;50.080;21.992;2023-02-28T10:30:16;100514.41;;;2.12;60.41
65872;BME280;52653;50.080;21.992;2023-02-28T10:33:21;100508.14;;;2.22;60.85
65872;BME280;52653;50.080;21.992;2023-02-28T10:36:17;100498.74;;;2.28;60.30
65872;BME280;52653;50.080;21.992;2023-02-28T10:39:36;100493.98;;;2.33;60.31
65872;BME280;52653;50.080;21.992;2023-02-28T10:42:31;100496.52;;;2.44;60.59
65872;BME280;52653;50.080;21.992;2023-02-28T10:45:25;100493.64;;;2.50;59.81
65872;BME280;52653;50.080;21.992;2023-02-28T10:48:32;100485.99;;;2.56;59.95
65872;BME280;52653;50.080;21.992;2023-02-28T10:51:26;100483.62;;;2.61;59.65
65872;BME280;52653;50.080;21.992;2023-02-28T10:54:30;100482.34;;;2.67;58.99
65872;BME280;52653;50.080;21.992;2023-02-28T10:57:20;100473.02;;;2.72;58.73
65872;BME280;52653;50.080;21.992;2023-02-28T11:00:19;100476.66;;;2.84;59.05
65872;BME280;52653;50.080;21.992;2023-02-28T11:03:25;100479.48;;;2.93;58.57
65872;BME280;52653;50.080;21.992;2023-02-28T11:06:19;100476.50;;;2.96;58.40
65872;BME280;52653;50.080;21.992;2023-02-28T11:09:22;100471.04;;;3.06;58.31
65872;BME280;52653;50.080;21.992;2023-02-28T11:12:24;100470.23;;;3.12;57.64
65872;BME280;52653;50.080;21.992;2023-02-28T11:15:24;100464.10;;;3.19;58.34
65872;BME280;52653;50.080;21.992;2023-02-28T11:18:24;100463.82;;;3.29;58.95
65872;BME280;52653;50.080;21.992;2023-02-28T11:21:25;100459.60;;;3.40;58.63
65872;BME280;52653;50.080;21.992;2023-02-28T11:24:24;100462.78;;;3.45;57.87
65872;BME280;52653;50.080;21.992;2023-02-28T11:27:45;100463.23;;;3.48;57.26
65872;BME280;52653;50.080;21.992;2023-02-28T11:30:40;100460.81;;;3.57;57.63
65872;BME280;52653;50.080;21.992;2023-02-28T11:33:31;100461.23;;;3.58;56.78
65872;BME280;52653;50.080;21.992;2023-02-28T11:36:27;100460.58;;;3.55;56.98
65872;BME280;52653;50.080;21.992;2023-02-28T11:39:21;100460.48;;;3.53;56.62
65872;BME280;52653;50.080;21.992;2023-02-28T11:42:30;100460.64;;;3.57;56.67
65872;BME280;52653;50.080;21.992;2023-02-28T11:45:45;100460.91;;;3.50;56.08
65872;BME280;52653;50.080;21.992;2023-02-28T11:48:49;100461.09;;;3.51;56.23
65872;BME280;52653;50.080;21.992;2023-02-28T11:51:49;100455.24;;;3.52;56.07
65872;BME280;52653;50.080;21.992;2023-02-28T11:54:57;100454.82;;;3.54;57.12
65872;BME280;52653;50.080;21.992;2023-02-28T11:58:09;100456.74;;;3.59;56.03
65872;BME280;52653;50.080;21.992;2023-02-28T12:01:23;100456.24;;;3.64;56.73
65872;BME280;52653;50.080;21.992;2023-02-28T12:04:26;100461.91;;;3.71;56.26
65872;BME280;52653;50.080;21.992;2023-02-28T12:07:27;100459.30;;;3.70;56.48
65872;BME280;52653;50.080;21.992;2023-02-28T12:10:22;100454.71;;;3.69;56.66
65872;BME280;52653;50.080;21.992;2023-02-28T12:13:23;100453.79;;;3.68;56.31
65872;BME280;52653;50.080;21.992;2023-02-28T12:16:37;100449.25;;;3.71;56.23
65872;BME280;52653;50.080;21.992;2023-02-28T12:19:38;100446.63;;;3.75;56.34
65872;BME280;52653;50.080;21.992;2023-02-28T12:22:39;100442.08;;;3.78;56.36
65872;BME280;52653;50.080;21.992;2023-02-28T12:25:51;100434.77;;;3.87;56.15
65872;BME280;52653;50.080;21.992;2023-02-28T12:28:39;100436.41;;;3.94;56.72
65872;BME280;52653;50.080;21.992;2023-02-28T12:31:38;100439.10;;;4.00;56.68
65872;BME280;52653;50.080;21.992;2023-02-28T12:34:38;100437.02;;;4.00;55.91
65872;BME280;52653;50.080;21.992;2023-02-28T12:37:36;100435.69;;;3.93;55.89
65872;BME280;52653;50.080;21.992;2023-02-28T12:40:25;100434.91;;;3.91;56.53
65872;BME280;52653;50.080;21.992;2023-02-28T12:43:21;100431.23;;;3.98;56.65
65872;BME280;52653;50.080;21.992;2023-02-28T12:46:12;100432.38;;;3.97;55.90
65872;BME280;52653;50.080;21.992;2023-02-28T12:49:12;100433.08;;;3.92;55.91
65872;BME280;52653;50.080;21.992;2023-02-28T12:52:05;100431.73;;;3.89;56.01
65872;BME280;52653;50.080;21.992;2023-02-28T12:55:05;100426.57;;;3.91;56.02
65872;BME280;52653;50.080;21.992;2023-02-28T12:58:07;100425.47;;;3.93;56.25
65872;BME280;52653;50.080;21.992;2023-02-28T13:04:54;100418.38;;;3.94;56.13
65872;BME280;52653;50.080;21.992;2023-02-28T13:08:20;100412.05;;;3.96;56.48
65872;BME280;52653;50.080;21.992;2023-02-28T13:11:27;100415.44;;;3.98;56.43
65872;BME280;52653;50.080;21.992;2023-02-28T13:14:28;100413.94;;;4.00;56.39
65872;BME280;52653;50.080;21.992;2023-02-28T13:17:23;100407.29;;;4.03;56.41
65872;BME280;52653;50.080;21.992;2023-02-28T13:20:19;100406.80;;;4.08;56.41
65872;BME280;52653;50.080;21.992;2023-02-28T13:27:22;100395.48;;;4.17;56.28
65872;BME280;52653;50.080;21.992;2023-02-28T13:34:12;100388.27;;;4.06;55.58
65872;BME280;52653;50.080;21.992;2023-02-28T13:37:36;100388.80;;;4.06;56.39
65872;BME280;52653;50.080;21.992;2023-02-28T13:40:56;100387.89;;;4.08;56.63
65872;BME280;52653;50.080;21.992;2023-02-28T13:44:12;100380.32;;;4.02;56.43
65872;BME280;52653;50.080;21.992;2023-02-28T13:47:22;100377.90;;;3.93;56.61
65872;BME280;52653;50.080;21.992;2023-02-28T13:50:23;100378.74;;;3.88;56.79
65872;BME280;52653;50.080;21.992;2023-02-28T13:53:51;100371.45;;;3.88;56.90
65872;BME280;52653;50.080;21.992;2023-02-28T13:56:53;100368.13;;;3.82;56.87
65872;BME280;52653;50.080;21.992;2023-02-28T14:00:00;100367.76;;;3.77;57.13
65872;BME280;52653;50.080;21.992;2023-02-28T14:03:11;100369.58;;;3.75;56.62
65872;BME280;52653;50.080;21.992;2023-02-28T14:06:21;100365.98;;;3.71;56.83
65872;BME280;52653;50.080;21.992;2023-02-28T14:09:23;100366.48;;;3.67;57.63
65872;BME280;52653;50.080;21.992;2023-02-28T14:12:55;100364.60;;;3.67;57.23
65872;BME280;52653;50.080;21.992;2023-02-28T14:15:57;100362.84;;;3.62;56.56
65872;BME280;52653;50.080;21.992;2023-02-28T14:18:57;100361.65;;;3.58;56.86
65872;BME280;52653;50.080;21.992;2023-02-28T14:22:16;100364.08;;;3.58;56.73
65872;BME280;52653;50.080;21.992;2023-02-28T14:25:25;100363.63;;;3.56;55.93
65872;BME280;52653;50.080;21.992;2023-02-28T14:28:31;100357.92;;;3.56;56.08
65872;BME280;52653;50.080;21.992;2023-02-28T14:31:35;100355.49;;;3.60;57.13
65872;BME280;52653;50.080;21.992;2023-02-28T14:34:35;100357.83;;;3.63;57.49
65872;BME280;52653;50.080;21.992;2023-02-28T14:37:28;100356.59;;;3.62;57.10
65872;BME280;52653;50.080;21.992;2023-02-28T14:40:25;100355.71;;;3.53;56.24
65872;BME280;52653;50.080;21.992;2023-02-28T14:43:31;100357.02;;;3.42;56.58
65872;BME280;52653;50.080;21.992;2023-02-28T14:46:15;100357.48;;;3.36;57.07
65872;BME280;52653;50.080;21.992;2023-02-28T14:49:15;100357.05;;;3.29;57.49
65872;BME280;52653;50.080;21.992;2023-02-28T14:52:17;100360.90;;;3.21;57.77
65872;BME280;52653;50.080;21.992;2023-02-28T14:55:17;100359.98;;;3.16;57.51
65872;BME280;52653;50.080;21.992;2023-02-28T14:58:25;100362.00;;;3.10;57.49
65872;BME280;52653;50.080;21.992;2023-02-28T15:01:21;100358.37;;;3.06;58.18
65872;BME280;52653;50.080;21.992;2023-02-28T15:04:25;100358.91;;;3.03;58.52
65872;BME280;52653;50.080;21.992;2023-02-28T15:07:13;100358.15;;;2.96;58.82
65872;BME280;52653;50.080;21.992;2023-02-28T15:10:13;100358.67;;;2.88;58.97
65872;BME280;52653;50.080;21.992;2023-02-28T15:13:12;100359.30;;;2.74;59.22
65872;BME280;52653;50.080;21.992;2023-02-28T15:16:10;100359.23;;;2.64;59.73
65872;BME280;52653;50.080;21.992;2023-02-28T15:19:00;100358.20;;;2.56;60.28
65872;BME280;52653;50.080;21.992;2023-02-28T15:21:56;100355.64;;;2.50;60.43
65872;BME280;52653;50.080;21.992;2023-02-28T15:24:54;100351.64;;;2.41;60.61
65872;BME280;52653;50.080;21.992;2023-02-28T15:27:50;100350.28;;;2.29;60.81
65872;BME280;52653;50.080;21.992;2023-02-28T15:30:38;100350.26;;;2.21;61.12
65872;BME280;52653;50.080;21.992;2023-02-28T15:33:32;100350.00;;;2.11;61.18